Ruidoso, New Mexico
Current Conditions -  °F | °C
As of 8:55 AM on Thursday 27 Nov 2014 (Local Time) from KSRR Reporting Station
Clear Clear  
Wind Chill: 50°   Ceiling: Unl
Heat Index: 50°   Visibility: 10mi
Dew Point: 19°   Wind: 0mph
Humidity: 30%   Direction: NA
Pressure: 30.5"   Gusts: NA
Location:  33.45°N, 105.52°W
Report Text: KSRR 271555Z AUTO 00000KT 10SM CLR 10/M07 A3050 RMK AO2
Loading
Personal Weather Stations






























Interactive Weather Map New forecast layout! Learn more

10-Day Weather Forecast

Advertisements
Track Severe Weather on mobile